Hovedside
METAR-TAF:

METAR-TAF

Lufthavner :

Brønnøysund lufthavn. Brønnøy

Brønnøysund, Norge

breddegrad: 65-28N, lengdegrad: 012-13E, høyde over havet: 0 m

Gjeldene værobservasjon

Denne rapporten ble laget for 16 minutter siden, klokken 01:20 UTC
Vind 1 kt fra skiftende retning
Temperatur 2°C
Luftfuktighet 80%
Trykk 1017 hPa
Sikt 10 km eller mer

METAR: ENBN 110120Z AUTO VRB01KT 9999NDV SCT016/// OVC052/// 02/M01 Q1017

Tid: 02:36 (01:36 UTC)

Varsel

Denne rapporten ble laget for 11 timer og 36 minutter siden, klokken 14:00 UTC
Varsel gyldig fra 10. klokken 15 UTC til 10. klokken 20 UTC
Vind 8 kt fra Nord-nordøst
Sikt 10 km eller mer
Få skyer i en høyde av 2000 ft
Brutte skyer i en høyde av 4000 ft

TAF: ENBN 101400Z 1015/1020 02008KT 9999 FEW020 BKN040

Værobservasjoner og værvarsel for over 4000 flyplasser (METAR- og TAF-rapporter).

Tilgjengelige stasjoner er representert av de røde og gule prikkene på kartet.

Hold musepekeren over prikken for å se navnet på stasjonen.

Klikk så for å se værobservasjoner og -varsler.

For å forandre kartet kan du klikke på den grønne knappen med svart kryss for å zoome inn, på den grønne knappen med strek for å zoome ut, eller på de grønne pilene for å se tilstøtende kart.


METAR-TAF: